sensor_id;sensor_type;location;lat;lon;timestamp;pressure;altitude;pressure_sealevel;temperature;humidity
7660;BME280;3872;47.902;8.162;2023-03-25T00:01:21;91444.41;;;7.82;100.00
7660;BME280;3872;47.902;8.162;2023-03-25T00:03:50;91453.38;;;8.41;100.00
7660;BME280;3872;47.902;8.162;2023-03-25T00:06:18;91438.09;;;7.83;100.00
7660;BME280;3872;47.902;8.162;2023-03-25T00:08:46;91453.22;;;8.19;100.00
7660;BME280;3872;47.902;8.162;2023-03-25T00:11:13;91442.00;;;8.32;100.00
7660;BME280;3872;47.902;8.162;2023-03-25T00:13:39;91443.09;;;8.86;100.00
7660;BME280;3872;47.902;8.162;2023-03-25T00:16:07;91442.94;;;7.76;100.00
7660;BME280;3872;47.902;8.162;2023-03-25T00:18:34;91435.72;;;8.33;100.00
7660;BME280;3872;47.902;8.162;2023-03-25T00:21:03;91441.47;;;8.03;100.00
7660;BME280;3872;47.902;8.162;2023-03-25T00:23:31;91430.19;;;8.76;100.00
7660;BME280;3872;47.902;8.162;2023-03-25T00:25:59;91432.25;;;8.19;100.00
7660;BME280;3872;47.902;8.162;2023-03-25T00:28:27;91422.22;;;7.61;100.00
7660;BME280;3872;47.902;8.162;2023-03-25T00:30:58;91441.13;;;8.23;100.00
7660;BME280;3872;47.902;8.162;2023-03-25T00:33:26;91418.25;;;7.96;100.00
7660;BME280;3872;47.902;8.162;2023-03-25T00:35:53;91419.03;;;8.43;100.00
7660;BME280;3872;47.902;8.162;2023-03-25T00:38:25;91421.97;;;8.09;100.00
7660;BME280;3872;47.902;8.162;2023-03-25T00:41:06;91422.59;;;7.87;100.00
7660;BME280;3872;47.902;8.162;2023-03-25T00:43:32;91428.94;;;8.00;100.00
7660;BME280;3872;47.902;8.162;2023-03-25T00:45:59;91422.13;;;8.45;100.00
7660;BME280;3872;47.902;8.162;2023-03-25T00:48:25;91421.25;;;8.36;100.00
7660;BME280;3872;47.902;8.162;2023-03-25T00:50:52;91411.28;;;8.19;100.00
7660;BME280;3872;47.902;8.162;2023-03-25T00:53:19;91408.13;;;7.90;100.00
7660;BME280;3872;47.902;8.162;2023-03-25T00:55:45;91393.59;;;8.43;100.00
7660;BME280;3872;47.902;8.162;2023-03-25T00:58:13;91401.69;;;8.14;100.00
7660;BME280;3872;47.902;8.162;2023-03-25T01:00:40;91408.44;;;7.88;100.00
7660;BME280;3872;47.902;8.162;2023-03-25T01:03:06;91401.19;;;8.26;100.00
7660;BME280;3872;47.902;8.162;2023-03-25T01:05:33;91396.47;;;7.82;100.00
7660;BME280;3872;47.902;8.162;2023-03-25T01:08:00;91408.03;;;7.48;100.00
7660;BME280;3872;47.902;8.162;2023-03-25T01:10:28;91396.16;;;8.16;100.00
7660;BME280;3872;47.902;8.162;2023-03-25T01:12:55;91407.56;;;7.60;100.00
7660;BME280;3872;47.902;8.162;2023-03-25T01:15:23;91415.00;;;7.53;100.00
7660;BME280;3872;47.902;8.162;2023-03-25T01:17:50;91410.84;;;7.84;100.00
7660;BME280;3872;47.902;8.162;2023-03-25T01:20:17;91409.63;;;7.96;100.00
7660;BME280;3872;47.902;8.162;2023-03-25T01:22:43;91407.50;;;8.11;100.00
7660;BME280;3872;47.902;8.162;2023-03-25T01:25:10;91419.41;;;7.90;100.00
7660;BME280;3872;47.902;8.162;2023-03-25T01:27:36;91397.22;;;8.15;100.00
7660;BME280;3872;47.902;8.162;2023-03-25T01:30:03;91394.34;;;8.44;100.00
7660;BME280;3872;47.902;8.162;2023-03-25T01:32:31;91378.88;;;8.70;100.00
7660;BME280;3872;47.902;8.162;2023-03-25T01:34:58;91384.41;;;7.67;100.00
7660;BME280;3872;47.902;8.162;2023-03-25T01:37:24;91392.91;;;7.92;100.00
7660;BME280;3872;47.902;8.162;2023-03-25T01:39:51;91403.63;;;7.63;100.00
7660;BME280;3872;47.902;8.162;2023-03-25T01:42:18;91401.19;;;7.53;100.00
7660;BME280;3872;47.902;8.162;2023-03-25T01:45:11;91400.22;;;8.08;100.00
7660;BME280;3872;47.902;8.162;2023-03-25T01:47:40;91395.63;;;7.86;100.00
7660;BME280;3872;47.902;8.162;2023-03-25T01:50:08;91389.72;;;7.95;100.00
7660;BME280;3872;47.902;8.162;2023-03-25T01:52:41;91378.22;;;8.23;100.00
7660;BME280;3872;47.902;8.162;2023-03-25T01:55:10;91391.22;;;7.68;100.00
7660;BME280;3872;47.902;8.162;2023-03-25T01:57:39;91378.59;;;8.16;100.00
7660;BME280;3872;47.902;8.162;2023-03-25T02:00:09;91378.81;;;8.47;100.00
7660;BME280;3872;47.902;8.162;2023-03-25T02:02:42;91386.16;;;8.18;100.00
7660;BME280;3872;47.902;8.162;2023-03-25T02:05:15;91351.19;;;7.81;100.00
7660;BME280;3872;47.902;8.162;2023-03-25T02:07:46;91370.25;;;6.85;100.00
7660;BME280;3872;47.902;8.162;2023-03-25T02:10:15;91370.59;;;6.97;100.00
7660;BME280;3872;47.902;8.162;2023-03-25T02:12:42;91364.75;;;7.37;100.00
7660;BME280;3872;47.902;8.162;2023-03-25T02:15:11;91385.34;;;6.69;100.00
7660;BME280;3872;47.902;8.162;2023-03-25T02:17:51;91389.97;;;6.96;100.00
7660;BME280;3872;47.902;8.162;2023-03-25T02:20:53;91409.53;;;6.80;100.00
7660;BME280;3872;47.902;8.162;2023-03-25T02:24:02;91379.75;;;5.85;100.00
7660;BME280;3872;47.902;8.162;2023-03-25T02:26:57;91401.88;;;6.46;100.00
7660;BME280;3872;47.902;8.162;2023-03-25T02:29:39;91419.19;;;5.55;100.00
7660;BME280;3872;47.902;8.162;2023-03-25T02:32:20;91422.47;;;6.00;100.00
7660;BME280;3872;47.902;8.162;2023-03-25T02:35:03;91420.44;;;5.97;100.00
7660;BME280;3872;47.902;8.162;2023-03-25T02:38:02;91406.09;;;6.42;100.00
7660;BME280;3872;47.902;8.162;2023-03-25T02:40:43;91429.16;;;6.11;100.00
7660;BME280;3872;47.902;8.162;2023-03-25T02:43:14;91445.00;;;6.43;100.00
7660;BME280;3872;47.902;8.162;2023-03-25T02:45:45;91442.66;;;5.94;100.00
7660;BME280;3872;47.902;8.162;2023-03-25T02:48:18;91419.31;;;6.50;100.00
7660;BME280;3872;47.902;8.162;2023-03-25T02:50:50;91423.16;;;6.58;100.00
7660;BME280;3872;47.902;8.162;2023-03-25T02:53:23;91434.03;;;5.94;100.00
7660;BME280;3872;47.902;8.162;2023-03-25T02:55:51;91437.34;;;6.28;100.00
7660;BME280;3872;47.902;8.162;2023-03-25T02:58:22;91419.09;;;5.99;100.00
7660;BME280;3872;47.902;8.162;2023-03-25T03:00:50;91437.69;;;5.93;100.00
7660;BME280;3872;47.902;8.162;2023-03-25T03:03:17;91430.88;;;5.97;100.00
7660;BME280;3872;47.902;8.162;2023-03-25T03:05:47;91430.81;;;6.92;100.00
7660;BME280;3872;47.902;8.162;2023-03-25T03:08:27;91414.94;;;7.07;100.00
7660;BME280;3872;47.902;8.162;2023-03-25T03:11:01;91427.81;;;6.61;100.00
7660;BME280;3872;47.902;8.162;2023-03-25T03:13:41;91429.09;;;5.87;100.00
7660;BME280;3872;47.902;8.162;2023-03-25T03:16:22;91433.22;;;6.46;100.00
7660;BME280;3872;47.902;8.162;2023-03-25T03:19:01;91434.53;;;6.19;100.00
7660;BME280;3872;47.902;8.162;2023-03-25T03:21:35;91422.56;;;7.03;100.00
7660;BME280;3872;47.902;8.162;2023-03-25T03:24:10;91433.94;;;6.27;100.00
7660;BME280;3872;47.902;8.162;2023-03-25T03:26:41;91435.97;;;6.78;100.00
7660;BME280;3872;47.902;8.162;2023-03-25T03:29:13;91442.22;;;6.58;100.00
7660;BME280;3872;47.902;8.162;2023-03-25T03:31:44;91433.69;;;6.72;100.00
7660;BME280;3872;47.902;8.162;2023-03-25T03:34:19;91436.38;;;6.43;100.00
7660;BME280;3872;47.902;8.162;2023-03-25T03:36:50;91442.66;;;5.60;100.00
7660;BME280;3872;47.902;8.162;2023-03-25T03:39:22;91453.50;;;5.72;100.00
7660;BME280;3872;47.902;8.162;2023-03-25T03:41:52;91448.00;;;6.55;100.00
7660;BME280;3872;47.902;8.162;2023-03-25T03:44:23;91447.47;;;6.58;100.00
7660;BME280;3872;47.902;8.162;2023-03-25T03:46:55;91433.59;;;7.00;100.00
7660;BME280;3872;47.902;8.162;2023-03-25T03:49:26;91444.00;;;5.86;100.00
7660;BME280;3872;47.902;8.162;2023-03-25T03:51:57;91442.06;;;6.26;100.00
7660;BME280;3872;47.902;8.162;2023-03-25T03:54:29;91437.44;;;6.65;100.00
7660;BME280;3872;47.902;8.162;2023-03-25T03:57:00;91445.88;;;6.81;100.00
7660;BME280;3872;47.902;8.162;2023-03-25T03:59:34;91441.72;;;6.56;100.00
7660;BME280;3872;47.902;8.162;2023-03-25T04:02:06;91446.72;;;5.71;100.00
7660;BME280;3872;47.902;8.162;2023-03-25T04:04:34;91440.50;;;6.49;100.00
7660;BME280;3872;47.902;8.162;2023-03-25T04:07:06;91445.19;;;6.28;100.00
7660;BME280;3872;47.902;8.162;2023-03-25T04:09:41;91442.16;;;6.16;100.00
7660;BME280;3872;47.902;8.162;2023-03-25T04:12:23;91438.72;;;5.97;100.00
7660;BME280;3872;47.902;8.162;2023-03-25T04:14:52;91417.94;;;5.53;100.00
7660;BME280;3872;47.902;8.162;2023-03-25T04:17:18;91436.16;;;5.86;100.00
7660;BME280;3872;47.902;8.162;2023-03-25T04:19:45;91435.41;;;5.52;100.00
7660;BME280;3872;47.902;8.162;2023-03-25T04:22:16;91437.66;;;6.21;100.00
7660;BME280;3872;47.902;8.162;2023-03-25T04:24:45;91452.56;;;5.92;100.00
7660;BME280;3872;47.902;8.162;2023-03-25T04:27:14;91440.69;;;6.05;100.00
7660;BME280;3872;47.902;8.162;2023-03-25T04:29:41;91447.38;;;6.63;100.00
7660;BME280;3872;47.902;8.162;2023-03-25T04:32:10;91445.44;;;6.74;100.00
7660;BME280;3872;47.902;8.162;2023-03-25T04:34:36;91433.44;;;6.73;100.00
7660;BME280;3872;47.902;8.162;2023-03-25T04:37:03;91430.78;;;6.31;100.00
7660;BME280;3872;47.902;8.162;2023-03-25T04:39:29;91430.03;;;6.01;100.00
7660;BME280;3872;47.902;8.162;2023-03-25T04:41:58;91428.28;;;6.87;100.00
7660;BME280;3872;47.902;8.162;2023-03-25T04:44:26;91431.00;;;6.77;100.00
7660;BME280;3872;47.902;8.162;2023-03-25T04:46:53;91425.53;;;6.97;100.00
7660;BME280;3872;47.902;8.162;2023-03-25T04:49:22;91430.28;;;6.28;100.00
7660;BME280;3872;47.902;8.162;2023-03-25T04:51:50;91424.28;;;6.28;100.00
7660;BME280;3872;47.902;8.162;2023-03-25T04:54:17;91434.69;;;5.75;100.00
7660;BME280;3872;47.902;8.162;2023-03-25T04:56:45;91431.59;;;6.50;100.00
7660;BME280;3872;47.902;8.162;2023-03-25T04:59:15;91446.09;;;5.89;100.00
7660;BME280;3872;47.902;8.162;2023-03-25T05:01:43;91454.97;;;5.83;100.00
7660;BME280;3872;47.902;8.162;2023-03-25T05:04:11;91452.94;;;5.80;100.00
7660;BME280;3872;47.902;8.162;2023-03-25T05:06:39;91460.91;;;6.23;100.00
7660;BME280;3872;47.902;8.162;2023-03-25T05:09:09;91449.41;;;6.48;100.00
7660;BME280;3872;47.902;8.162;2023-03-25T05:11:37;91455.28;;;5.77;100.00
7660;BME280;3872;47.902;8.162;2023-03-25T05:14:04;91463.44;;;5.70;100.00
7660;BME280;3872;47.902;8.162;2023-03-25T05:16:32;91459.31;;;5.30;100.00
7660;BME280;3872;47.902;8.162;2023-03-25T05:18:59;91441.94;;;6.12;100.00
7660;BME280;3872;47.902;8.162;2023-03-25T05:21:28;91451.38;;;6.08;100.00
7660;BME280;3872;47.902;8.162;2023-03-25T05:23:56;91446.63;;;6.39;100.00
7660;BME280;3872;47.902;8.162;2023-03-25T05:26:22;91445.44;;;6.26;100.00
7660;BME280;3872;47.902;8.162;2023-03-25T05:28:49;91466.03;;;6.04;100.00
7660;BME280;3872;47.902;8.162;2023-03-25T05:31:16;91463.59;;;5.84;100.00
7660;BME280;3872;47.902;8.162;2023-03-25T05:33:43;91470.03;;;5.63;100.00
7660;BME280;3872;47.902;8.162;2023-03-25T05:36:12;91469.28;;;5.91;100.00
7660;BME280;3872;47.902;8.162;2023-03-25T05:38:40;91460.81;;;5.75;100.00
7660;BME280;3872;47.902;8.162;2023-03-25T05:41:07;91467.84;;;5.41;100.00
7660;BME280;3872;47.902;8.162;2023-03-25T05:43:35;91464.56;;;5.25;100.00
7660;BME280;3872;47.902;8.162;2023-03-25T05:46:02;91456.19;;;5.62;100.00
7660;BME280;3872;47.902;8.162;2023-03-25T05:48:29;91444.22;;;5.95;100.00
7660;BME280;3872;47.902;8.162;2023-03-25T05:50:58;91460.09;;;5.65;100.00
7660;BME280;3872;47.902;8.162;2023-03-25T05:53:25;91456.94;;;6.02;100.00
7660;BME280;3872;47.902;8.162;2023-03-25T05:55:55;91455.31;;;5.43;100.00
7660;BME280;3872;47.902;8.162;2023-03-25T05:58:21;91473.09;;;5.36;100.00
7660;BME280;3872;47.902;8.162;2023-03-25T06:00:49;91463.84;;;5.54;100.00
7660;BME280;3872;47.902;8.162;2023-03-25T06:03:17;91465.91;;;5.57;100.00
7660;BME280;3872;47.902;8.162;2023-03-25T06:05:45;91456.66;;;5.35;100.00
7660;BME280;3872;47.902;8.162;2023-03-25T06:08:13;91462.75;;;5.26;100.00
7660;BME280;3872;47.902;8.162;2023-03-25T06:10:41;91480.34;;;5.00;100.00
7660;BME280;3872;47.902;8.162;2023-03-25T06:13:10;91458.16;;;5.80;100.00
7660;BME280;3872;47.902;8.162;2023-03-25T06:15:36;91462.75;;;5.21;100.00
7660;BME280;3872;47.902;8.162;2023-03-25T06:18:05;91470.47;;;5.75;100.00
7660;BME280;3872;47.902;8.162;2023-03-25T06:20:31;91471.06;;;5.62;100.00
7660;BME280;3872;47.902;8.162;2023-03-25T06:22:58;91462.91;;;5.39;100.00
7660;BME280;3872;47.902;8.162;2023-03-25T06:25:26;91457.91;;;5.43;100.00
7660;BME280;3872;47.902;8.162;2023-03-25T06:27:53;91463.41;;;5.41;100.00
7660;BME280;3872;47.902;8.162;2023-03-25T06:30:20;91468.28;;;5.87;100.00
7660;BME280;3872;47.902;8.162;2023-03-25T06:32:47;91471.06;;;6.01;100.00
7660;BME280;3872;47.902;8.162;2023-03-25T06:35:17;91469.88;;;5.88;100.00
7660;BME280;3872;47.902;8.162;2023-03-25T06:37:46;91460.59;;;6.01;100.00
7660;BME280;3872;47.902;8.162;2023-03-25T06:40:19;91465.53;;;6.31;100.00
7660;BME280;3872;47.902;8.162;2023-03-25T06:42:48;91469.03;;;6.45;100.00
7660;BME280;3872;47.902;8.162;2023-03-25T06:45:40;91476.69;;;5.45;100.00
7660;BME280;3872;47.902;8.162;2023-03-25T06:48:14;91465.13;;;6.19;100.00
7660;BME280;3872;47.902;8.162;2023-03-25T06:50:40;91461.50;;;6.15;100.00
7660;BME280;3872;47.902;8.162;2023-03-25T06:53:07;91461.63;;;5.37;100.00
7660;BME280;3872;47.902;8.162;2023-03-25T06:55:33;91446.06;;;6.42;100.00
7660;BME280;3872;47.902;8.162;2023-03-25T06:58:01;91446.63;;;6.63;100.00
7660;BME280;3872;47.902;8.162;2023-03-25T07:00:28;91455.69;;;6.23;100.00
7660;BME280;3872;47.902;8.162;2023-03-25T07:02:55;91453.56;;;5.67;100.00
7660;BME280;3872;47.902;8.162;2023-03-25T07:05:22;91452.97;;;6.57;100.00
7660;BME280;3872;47.902;8.162;2023-03-25T07:07:49;91443.72;;;6.41;100.00
7660;BME280;3872;47.902;8.162;2023-03-25T07:10:16;91440.34;;;6.40;100.00
7660;BME280;3872;47.902;8.162;2023-03-25T07:12:42;91457.38;;;5.80;100.00
7660;BME280;3872;47.902;8.162;2023-03-25T07:15:10;91439.28;;;6.41;100.00
7660;BME280;3872;47.902;8.162;2023-03-25T07:17:39;91448.50;;;6.34;100.00
7660;BME280;3872;47.902;8.162;2023-03-25T07:20:08;91452.03;;;6.90;100.00
7660;BME280;3872;47.902;8.162;2023-03-25T07:22:35;91469.09;;;5.48;100.00
7660;BME280;3872;47.902;8.162;2023-03-25T07:25:01;91465.00;;;6.05;100.00
7660;BME280;3872;47.902;8.162;2023-03-25T07:27:28;91453.16;;;6.13;100.00
7660;BME280;3872;47.902;8.162;2023-03-25T07:30:04;91456.13;;;6.78;100.00
7660;BME280;3872;47.902;8.162;2023-03-25T07:32:32;91446.69;;;6.58;100.00
7660;BME280;3872;47.902;8.162;2023-03-25T07:34:58;91444.03;;;6.82;100.00
7660;BME280;3872;47.902;8.162;2023-03-25T07:37:25;91433.94;;;6.27;100.00
7660;BME280;3872;47.902;8.162;2023-03-25T07:39:51;91438.75;;;6.87;100.00
7660;BME280;3872;47.902;8.162;2023-03-25T07:42:18;91433.09;;;7.36;100.00
7660;BME280;3872;47.902;8.162;2023-03-25T07:45:01;91445.53;;;7.25;100.00
7660;BME280;3872;47.902;8.162;2023-03-25T07:47:29;91458.44;;;6.08;100.00
7660;BME280;3872;47.902;8.162;2023-03-25T07:49:57;91447.06;;;6.22;100.00
7660;BME280;3872;47.902;8.162;2023-03-25T07:52:23;91450.41;;;6.94;100.00
7660;BME280;3872;47.902;8.162;2023-03-25T07:54:50;91465.56;;;5.68;100.00
7660;BME280;3872;47.902;8.162;2023-03-25T07:57:16;91453.56;;;6.73;100.00
7660;BME280;3872;47.902;8.162;2023-03-25T07:59:43;91454.94;;;6.89;100.00
7660;BME280;3872;47.902;8.162;2023-03-25T08:02:11;91462.28;;;6.15;100.00
7660;BME280;3872;47.902;8.162;2023-03-25T08:04:38;91461.69;;;6.71;100.00
7660;BME280;3872;47.902;8.162;2023-03-25T08:07:06;91455.47;;;6.67;100.00
7660;BME280;3872;47.902;8.162;2023-03-25T08:09:33;91461.19;;;6.69;100.00
7660;BME280;3872;47.902;8.162;2023-03-25T08:12:00;91461.25;;;6.40;100.00
7660;BME280;3872;47.902;8.162;2023-03-25T08:14:26;91450.41;;;7.13;100.00
7660;BME280;3872;47.902;8.162;2023-03-25T08:16:53;91453.44;;;6.83;100.00
7660;BME280;3872;47.902;8.162;2023-03-25T08:19:19;91447.78;;;6.52;100.00
7660;BME280;3872;47.902;8.162;2023-03-25T08:21:46;91459.84;;;6.72;100.00
7660;BME280;3872;47.902;8.162;2023-03-25T08:24:14;91455.84;;;6.98;100.00
7660;BME280;3872;47.902;8.162;2023-03-25T08:26:40;91466.47;;;7.25;100.00
7660;BME280;3872;47.902;8.162;2023-03-25T08:29:07;91459.81;;;6.53;100.00
7660;BME280;3872;47.902;8.162;2023-03-25T08:31:35;91462.91;;;6.79;100.00
7660;BME280;3872;47.902;8.162;2023-03-25T08:34:03;91458.06;;;7.10;100.00
7660;BME280;3872;47.902;8.162;2023-03-25T08:36:31;91460.00;;;8.06;100.00
7660;BME280;3872;47.902;8.162;2023-03-25T08:38:57;91463.78;;;7.49;100.00
7660;BME280;3872;47.902;8.162;2023-03-25T08:41:25;91484.28;;;6.38;100.00
7660;BME280;3872;47.902;8.162;2023-03-25T08:43:54;91475.81;;;6.70;100.00
7660;BME280;3872;47.902;8.162;2023-03-25T08:46:20;91479.09;;;7.23;100.00
7660;BME280;3872;47.902;8.162;2023-03-25T08:48:47;91472.56;;;7.21;100.00
7660;BME280;3872;47.902;8.162;2023-03-25T08:51:19;91460.91;;;6.47;100.00
7660;BME280;3872;47.902;8.162;2023-03-25T08:53:45;91466.81;;;6.81;100.00
7660;BME280;3872;47.902;8.162;2023-03-25T08:56:12;91464.03;;;6.91;100.00
7660;BME280;3872;47.902;8.162;2023-03-25T08:58:40;91475.34;;;6.87;100.00
7660;BME280;3872;47.902;8.162;2023-03-25T09:01:07;91471.47;;;6.84;100.00
7660;BME280;3872;47.902;8.162;2023-03-25T09:03:33;91469.44;;;6.57;100.00
7660;BME280;3872;47.902;8.162;2023-03-25T09:06:03;91482.69;;;6.13;100.00
7660;BME280;3872;47.902;8.162;2023-03-25T09:08:29;91482.66;;;6.42;100.00
7660;BME280;3872;47.902;8.162;2023-03-25T09:10:57;91471.63;;;6.69;100.00
7660;BME280;3872;47.902;8.162;2023-03-25T09:13:23;91470.59;;;5.60;100.00
7660;BME280;3872;47.902;8.162;2023-03-25T09:15:51;91485.09;;;6.05;100.00
7660;BME280;3872;47.902;8.162;2023-03-25T09:18:18;91481.22;;;5.29;100.00
7660;BME280;3872;47.902;8.162;2023-03-25T09:20:44;91492.66;;;6.06;100.00
7660;BME280;3872;47.902;8.162;2023-03-25T09:23:12;91484.84;;;5.38;100.00
7660;BME280;3872;47.902;8.162;2023-03-25T09:25:39;91489.34;;;6.01;100.00
7660;BME280;3872;47.902;8.162;2023-03-25T09:28:06;91487.09;;;5.50;100.00
7660;BME280;3872;47.902;8.162;2023-03-25T09:30:32;91473.50;;;6.45;100.00
7660;BME280;3872;47.902;8.162;2023-03-25T09:33:00;91460.47;;;7.06;100.00
7660;BME280;3872;47.902;8.162;2023-03-25T09:35:27;91474.41;;;7.20;100.00
7660;BME280;3872;47.902;8.162;2023-03-25T09:37:53;91480.84;;;7.28;100.00
7660;BME280;3872;47.902;8.162;2023-03-25T09:40:20;91464.50;;;7.17;100.00
7660;BME280;3872;47.902;8.162;2023-03-25T09:43:01;91464.13;;;7.61;100.00
7660;BME280;3872;47.902;8.162;2023-03-25T09:45:33;91478.09;;;7.38;100.00
7660;BME280;3872;47.902;8.162;2023-03-25T09:48:06;91480.63;;;6.39;100.00
7660;BME280;3872;47.902;8.162;2023-03-25T09:50:38;91483.38;;;7.14;100.00
7660;BME280;3872;47.902;8.162;2023-03-25T09:53:11;91485.53;;;7.31;100.00
7660;BME280;3872;47.902;8.162;2023-03-25T09:55:43;91502.91;;;7.03;100.00
7660;BME280;3872;47.902;8.162;2023-03-25T09:58:24;91507.38;;;7.21;100.00
7660;BME280;3872;47.902;8.162;2023-03-25T10:00:55;91511.63;;;6.93;100.00
7660;BME280;3872;47.902;8.162;2023-03-25T10:03:30;91518.06;;;5.62;100.00
7660;BME280;3872;47.902;8.162;2023-03-25T10:06:11;91511.38;;;5.84;100.00
7660;BME280;3872;47.902;8.162;2023-03-25T10:08:49;91518.16;;;6.72;100.00
7660;BME280;3872;47.902;8.162;2023-03-25T10:11:24;91514.44;;;6.25;100.00
7660;BME280;3872;47.902;8.162;2023-03-25T10:13:54;91512.31;;;7.23;100.00
7660;BME280;3872;47.902;8.162;2023-03-25T10:16:32;91504.13;;;7.29;100.00
7660;BME280;3872;47.902;8.162;2023-03-25T10:19:17;91513.56;;;7.25;100.00
7660;BME280;3872;47.902;8.162;2023-03-25T10:21:51;91509.97;;;7.40;100.00
7660;BME280;3872;47.902;8.162;2023-03-25T10:24:20;91514.66;;;7.24;100.00
7660;BME280;3872;47.902;8.162;2023-03-25T10:26:53;91515.19;;;7.02;100.00
7660;BME280;3872;47.902;8.162;2023-03-25T10:29:27;91523.88;;;7.59;100.00
7660;BME280;3872;47.902;8.162;2023-03-25T10:31:59;91514.88;;;7.04;100.00
7660;BME280;3872;47.902;8.162;2023-03-25T10:34:34;91527.47;;;6.02;100.00
7660;BME280;3872;47.902;8.162;2023-03-25T10:37:03;91516.50;;;7.24;100.00
7660;BME280;3872;47.902;8.162;2023-03-25T10:39:32;91529.84;;;6.80;100.00
7660;BME280;3872;47.902;8.162;2023-03-25T10:42:15;91527.09;;;7.14;100.00
7660;BME280;3872;47.902;8.162;2023-03-25T10:44:44;91518.34;;;7.79;100.00
7660;BME280;3872;47.902;8.162;2023-03-25T10:47:14;91534.16;;;7.13;100.00
7660;BME280;3872;47.902;8.162;2023-03-25T10:49:46;91538.31;;;7.57;100.00
7660;BME280;3872;47.902;8.162;2023-03-25T10:52:14;91540.50;;;8.19;100.00
7660;BME280;3872;47.902;8.162;2023-03-25T10:54:43;91545.47;;;8.21;100.00
7660;BME280;3872;47.902;8.162;2023-03-25T10:57:16;91541.19;;;8.25;100.00
7660;BME280;3872;47.902;8.162;2023-03-25T10:59:53;91550.31;;;7.39;100.00
7660;BME280;3872;47.902;8.162;2023-03-25T11:02:23;91529.66;;;7.94;100.00
7660;BME280;3872;47.902;8.162;2023-03-25T11:04:55;91542.16;;;8.15;100.00
7660;BME280;3872;47.902;8.162;2023-03-25T11:07:27;91531.28;;;8.54;100.00
7660;BME280;3872;47.902;8.162;2023-03-25T11:10:08;91540.06;;;7.42;100.00
7660;BME280;3872;47.902;8.162;2023-03-25T11:12:35;91529.00;;;8.02;100.00
7660;BME280;3872;47.902;8.162;2023-03-25T11:15:04;91530.69;;;8.44;100.00
7660;BME280;3872;47.902;8.162;2023-03-25T11:17:31;91519.13;;;7.80;100.00
7660;BME280;3872;47.902;8.162;2023-03-25T11:20:00;91522.38;;;8.69;100.00
7660;BME280;3872;47.902;8.162;2023-03-25T11:22:36;91514.28;;;8.19;100.00
7660;BME280;3872;47.902;8.162;2023-03-25T11:25:05;91519.84;;;8.64;100.00
7660;BME280;3872;47.902;8.162;2023-03-25T11:27:40;91520.25;;;9.12;100.00
7660;BME280;3872;47.902;8.162;2023-03-25T11:30:15;91529.88;;;8.89;100.00
7660;BME280;3872;47.902;8.162;2023-03-25T11:32:42;91524.66;;;9.89;100.00
7660;BME280;3872;47.902;8.162;2023-03-25T11:35:17;91513.31;;;9.79;100.00
7660;BME280;3872;47.902;8.162;2023-03-25T11:37:52;91510.75;;;9.88;100.00
7660;BME280;3872;47.902;8.162;2023-03-25T11:40:21;91507.38;;;9.74;100.00
7660;BME280;3872;47.902;8.162;2023-03-25T11:42:51;91506.03;;;10.74;100.00
7660;BME280;3872;47.902;8.162;2023-03-25T11:45:20;91502.38;;;9.64;100.00
7660;BME280;3872;47.902;8.162;2023-03-25T11:47:47;91512.94;;;9.95;100.00
7660;BME280;3872;47.902;8.162;2023-03-25T11:50:24;91521.44;;;9.92;100.00
7660;BME280;3872;47.902;8.162;2023-03-25T11:52:53;91526.44;;;9.43;100.00
7660;BME280;3872;47.902;8.162;2023-03-25T11:55:23;91535.38;;;9.56;100.00
7660;BME280;3872;47.902;8.162;2023-03-25T11:57:53;91542.69;;;9.04;100.00
7660;BME280;3872;47.902;8.162;2023-03-25T12:00:35;91550.09;;;9.43;100.00
7660;BME280;3872;47.902;8.162;2023-03-25T12:03:04;91551.97;;;9.16;100.00
7660;BME280;3872;47.902;8.162;2023-03-25T12:05:32;91541.91;;;8.77;100.00
7660;BME280;3872;47.902;8.162;2023-03-25T12:08:03;91541.00;;;9.63;100.00
7660;BME280;3872;47.902;8.162;2023-03-25T12:10:44;91530.44;;;10.13;100.00
7660;BME280;3872;47.902;8.162;2023-03-25T12:13:20;91531.81;;;10.33;100.00
7660;BME280;3872;47.902;8.162;2023-03-25T12:15:54;91517.41;;;10.08;100.00
7660;BME280;3872;47.902;8.162;2023-03-25T12:18:40;91515.84;;;10.51;100.00
7660;BME280;3872;47.902;8.162;2023-03-25T12:21:19;91525.09;;;8.78;100.00
7660;BME280;3872;47.902;8.162;2023-03-25T12:23:59;91527.84;;;9.14;100.00
7660;BME280;3872;47.902;8.162;2023-03-25T12:26:31;91529.88;;;8.89;100.00
7660;BME280;3872;47.902;8.162;2023-03-25T12:29:29;91535.38;;;8.74;100.00
7660;BME280;3872;47.902;8.162;2023-03-25T12:32:13;91540.63;;;8.60;100.00
7660;BME280;3872;47.902;8.162;2023-03-25T12:34:51;91538.03;;;9.42;100.00
7660;BME280;3872;47.902;8.162;2023-03-25T12:37:26;91524.72;;;9.12;100.00
7660;BME280;3872;47.902;8.162;2023-03-25T12:42:50;91532.97;;;8.91;100.00
7660;BME280;3872;47.902;8.162;2023-03-25T12:45:45;91535.59;;;8.64;100.00
7660;BME280;3872;47.902;8.162;2023-03-25T12:48:23;91513.00;;;9.59;100.00
7660;BME280;3872;47.902;8.162;2023-03-25T12:50:58;91523.13;;;9.52;100.00
7660;BME280;3872;47.902;8.162;2023-03-25T12:53:44;91518.78;;;10.50;100.00
7660;BME280;3872;47.902;8.162;2023-03-25T12:56:24;91519.69;;;10.23;100.00
7660;BME280;3872;47.902;8.162;2023-03-25T13:01:57;91515.13;;;9.93;100.00
7660;BME280;3872;47.902;8.162;2023-03-25T13:04:38;91530.91;;;9.43;100.00
7660;BME280;3872;47.902;8.162;2023-03-25T13:07:10;91523.59;;;10.12;100.00
7660;BME280;3872;47.902;8.162;2023-03-25T13:09:49;91512.09;;;10.44;100.00
7660;BME280;3872;47.902;8.162;2023-03-25T13:12:27;91512.47;;;10.29;100.00
7660;BME280;3872;47.902;8.162;2023-03-25T13:15:01;91525.50;;;9.98;100.00
7660;BME280;3872;47.902;8.162;2023-03-25T13:17:31;91525.72;;;10.24;100.00
7660;BME280;3872;47.902;8.162;2023-03-25T13:20:01;91526.66;;;9.20;100.00
7660;BME280;3872;47.902;8.162;2023-03-25T13:22:33;91532.66;;;9.48;100.00
7660;BME280;3872;47.902;8.162;2023-03-25T13:25:04;91520.75;;;9.14;100.00
7660;BME280;3872;47.902;8.162;2023-03-25T13:27:37;91514.47;;;10.09;100.00
7660;BME280;3872;47.902;8.162;2023-03-25T13:30:11;91506.28;;;10.11;100.00
7660;BME280;3872;47.902;8.162;2023-03-25T13:32:42;91503.50;;;10.60;100.00
7660;BME280;3872;47.902;8.162;2023-03-25T13:35:14;91500.25;;;10.10;100.00
7660;BME280;3872;47.902;8.162;2023-03-25T13:37:45;91509.38;;;10.57;100.00
7660;BME280;3872;47.902;8.162;2023-03-25T13:40:23;91511.25;;;9.54;100.00
7660;BME280;3872;47.902;8.162;2023-03-25T13:42:55;91505.06;;;9.72;100.00
7660;BME280;3872;47.902;8.162;2023-03-25T13:45:28;91525.19;;;8.59;100.00
7660;BME280;3872;47.902;8.162;2023-03-25T13:48:01;91518.53;;;9.93;100.00